Impacts METAR Board
IDs:

KIAH - Houston/Bush Intl, TX, US

Updated at: 2300 UTC 01 Feb 2023
Potential Impact None Slight Moderate High
Time 01/11Z 01/12Z 01/13Z 01/14Z 01/15Z 01/16Z 01/17Z 01/18Z 01/19Z 01/20Z 01/21Z 01/22Z 01/23Z
Temp37 37 37 37 37 38 39 39 39 39 39 39 39
Dewpt35 35 35 35 36 37 37 37 37 38 38 38 38
Altim30.25 30.27 30.29 30.29 30.30 30.29 30.31 30.29 30.25 30.22 30.20 30.20 30.22
VIS7 7 7 2 2 7 7 7 7 5 5 5 1
CIG9 8 7 6 5 6 7 6 7 5 6 5 5
CoverOVCOVCOVCOVCOVCOVCOVCOVCOVCOVCOVCOVCOVC
FltCatIFRIFRIFRIFRIFRIFRIFRIFRIFRIFRIFRIFRIFR
WX-----RA-RA BRRA BR-RA------BRBRBRBR
WDir3603503403603401010101036036010330
WSpd14 9 7 8 6 9 11 8 12 13 11 7 8
WGst-- -- -- -- -- -- -- 16 -- -- -- -- --
Raw hourly METARs
KIAH 011053Z 36014KT 7SM OVC009 03/02 A3025 RMK AO2 SLP244 T00280017
KIAH 011153Z 35009KT 7SM OVC008 03/02 A3027 RMK AO2 SLP251 60001 70001 T00280017 10033 20028 51011
KIAH 011253Z 34007KT 7SM -RA OVC007 03/02 A3029 RMK AO2 RAB1159 PRESRR SLP259 P0003 T00280017
KIAH 011353Z 36008KT 2SM -RA BR OVC006 03/02 A3029 RMK AO2 SLP259 P0002 T00280017
KIAH 011453Z 34006KT 2SM RA BR BKN005 OVC025 03/02 A3030 RMK AO2 SLP262 P0002 60007 T00280022 51011
KIAH 011553Z 01009KT 7SM -RA BKN006 OVC029 03/03 A3029 RMK AO2 SLP258 P0005 T00330028
KIAH 011653Z 01011KT 7SM OVC007 04/03 A3031 RMK AO2 RAE34 SLP263 P0000 T00390028
KIAH 011753Z 01008G16KT 7SM OVC006 04/03 A3029 RMK AO2 RAB00E20B36E45 SLP257 P0000 60012 T00390028 10039 20022 58005
KIAH 011853Z 01012KT 7SM OVC007 04/03 A3025 RMK AO2 SLP244 T00390028
KIAH 011953Z 36013KT 5SM BR OVC005 04/03 A3022 RMK AO2 SLP235 T00390033
KIAH 012053Z 36011KT 5SM BR OVC006 04/03 A3020 RMK AO2 SLP228 T00390033 56029
KIAH 012153Z 01007KT 5SM BR OVC005 04/03 A3020 RMK AO2 SLP228 T00390033
KIAH 012253Z 33008KT 1SM BR OVC005 04/03 A3022 RMK AO2 SFC VIS 3 SLP234 T00390033



Page loaded:  23:10 UTC  |   03:10 PM Pacific  |   04:10 PM Mountain  |   05:10 PM Central  |   06:10 PM Eastern

 

ADVISORIES

FORECASTS

FORECASTS

OBSERVATIONS

USER TOOLS

ABOUT US